Carthage TX Speed Test Log

Averages  Max Speed    
1 to 25 of 4750** for City Carthage TX
Time
Speed Provider Size    User ConnectID  TestID   
9/22/20 8:06:08 pm 16.35 Mbps 2.04 MB/sFidelity 18.6 MB1559912370 wXbSaD11H 
9/22/20 8:05:53 pm 41.4 Mbps 5.18 MB/sFidelity 82.4 MB1559912370 Wiq~lOtLl 
9/21/20 8:24:16 pm 1.2 Mbps 151 kB/sViasat 1.2 MB6618594864298 ZSlofQkmE 
9/21/20 8:22:29 pm 14.91 Mbps 1.86 MB/sViasat 7.4 MB6618594864298 txJyryzw8 
9/18/20 9:18:38 pm 4.22 Mbps 528 kB/sFidelity 6.3 MB1559912370 KdrErjn70 
9/18/20 9:18:21 pm 4.81 Mbps 601 kB/sFidelity 7.7 MB1559912370 Clx9V9ZCG 
9/18/20 2:20:42 pm 321.61 Mbps 40.2 MB/sFidelity 65.5 MB223321599719 rvzIh72m5 
9/15/20 6:53:39 pm 191.97 Mbps 24 MB/sFidelity 200 MB223321599719 wXVqukolV 
9/13/20 11:42:53 am 111.57 Mbps 13.95 MB/sFidelity 80.4 MB22331544963 Mu9S2ymqz 
9/12/20 1:00:31 am 689 kbps 86 kB/sCogent 1.3 MB3494873118360 blS0KNa8P 
9/12/20 1:00:13 am 5.26 Mbps 657 kB/sCogent 7.4 MB3494873118360 DSnSV2vop 
9/7/20 7:08:50 pm 16.36 Mbps 2.05 MB/sFidelity 10.9 MB1559912370 WQ-uquHJB 
9/7/20 7:08:41 pm 32.2 Mbps 4.03 MB/sFidelity 61.8 MB1559912370 rziN94ztI 
9/5/20 7:13:50 pm 16.19 Mbps 2.02 MB/sFidelity 19.1 MB1559912370 TlTvhiGMc 
9/5/20 7:13:34 pm 48.37 Mbps 6.05 MB/sFidelity 83.6 MB1559912370 VpKNe9-HR 
9/2/20 11:46:59 pm 3.51 Mbps 439 kB/sCogent 2.2 MB349487314978 tCNm~b8jv 
9/2/20 1:08:40 pm 196.18 Mbps 24.52 MB/sFidelity 100 MB223321599719 P9XD4UIw7 
9/2/20 1:08:29 pm 374.63 Mbps 46.83 MB/sFidelity 200 MB223321599719 lr9JpEQFw 
9/1/20 12:22:38 am 3.51 Mbps 439 kB/sCogent 2.2 MB349487314978 OxAdbbiB3 
8/31/20 3:53:19 pm 16.27 Mbps 2.03 MB/sFidelity 19.1 MB1559912370 twzHUsw4O 
8/31/20 3:53:04 pm 43.25 Mbps 5.41 MB/sFidelity 76 MB1559912370 1Eebh1T_l 
8/31/20 2:15:07 pm 95.49 Mbps 11.94 MB/sFidelity 80.5 MB223321599902 d3tkV3574 
8/31/20 2:14:56 pm 89.69 Mbps 11.21 MB/sFidelity 80.5 MB223321599902 cHdX5SmF2 
8/28/20 7:53:09 pm 10.92 Mbps 1.37 MB/sFidelity 6.3 MB1559912370 iAPiMG11k 
8/28/20 7:52:49 pm 5.93 Mbps 742 kB/sFidelity 6.5 MB1559912370 1f7zGDQoD 
  
** Partial Results: The most recent results have been displayed. Results over 50 Mbps are highlighted.
Graphed results calculation
Displaying Internet Speed Test results for City Carthage TX

Minimum

Min 3.51 Mbps : 0.69 Mbps

Average [show Median]

Average 86.76 Mbps : 30.93 Mbps

Maximum

Max 374.63 Mbps : 196.18 Mbps

Minimum

Minimum: 3.51 Mbps : 0.69 Mbps

Average

Average: 86.76 Mbps : 30.93 Mbps [show Median]

Maximum

Maximum: 374.63 Mbps : 196.18 Mbps